To NAV CANADA Home Page Login to a new session Search on AWWS site Feedback and Comments Disclaimer Vers la page française équivalente Tips FAQ What's new on the site To the Forecasts and Observations / NOTAM section To "File a Flight Plan" website Publications and other links Update of the User's profile FIC Telephone Numbers My Weather Data Folder Route Weather Data Regional Weather Data Local Weather Data To the Forecasts and Observations / NOTAM section
Request Generated 02/07/2016 at 03:31:28 UTC . Weather information available at that time is displayed.

METAR/TAF

COLD LAKE/GROUP CAPTAIN R.W. MCNAIR/AB    

METAR CYOD 070300Z 30017G29KT 8SM -SHSN OVC030 M01/M05 A2977 RMK SC8 SLP113=
METAR CYOD 070200Z CCA 32025G35KT 15SM -SHSN SCT028 BKN160 00/M05 A2972 RMK SC3AC2 PCPN VRY LGT SLP095=
METAR CYOD 070200Z 32025G35KT 15SM SCT028 BKN160 00/M05 A2972 RMK SC3AC2 SLP095=
SPECI CYOD 070131Z 31024G29KT 12SM -SHSN OVC028 01/M04 A2969 RMK SC8 SLP081=
METAR CYOD 070100Z 30026G34KT 15SM OVC037 01/M05 A2966 RMK SC7 PRESRR SLP072=

TAF AMD CYOD 070041Z 0700/0724 29020G30KT P6SM SCT020 OVC030 TEMPO
0700/0708 5SM -SHSN OVC020
BECMG 0703/0705 29012KT
FM070800 32012KT P6SM SCT020
BECMG 0712/0714 28010KT
RMK NXT FCST BY 070600Z=
Your time UTC time
Weather data provided by Environment Canada and NAV CANADA